東京/横田 の空港の天気 - METARとTAF

横田飛行場 ( RJTY / OKO ) - 東京都福生市
飛行場実況気象(Metar)
観測時間05/29 06:56 JST (05/28 21:56 UTC)
風向・風速静穏 0m/s
視程10km以上
天気現象
少しの雲 雲底高度 5490m
気温21.3℃
湿度62%
気圧1007.5hPa
METARRJTY 282156Z 00000KT 10SM FEW180 21/14 A2975 RMK AO2A SLP075 T02130137 $
過去の天気等 Google飛行場航空写真 Wunderground天気予報

過去48時間のMETAR

飛行場予報(TAF)
発表時間: 5/29 06:00 JST (5/28 21:00 UTC)
予報対象時間: 29日6時 JST ~ 30日12時 JST
風向・風速不定 3m/s
視程10km以上
少しの雲 雲底高度 6100m
29日9時 JST ~ 29日10時 JST に徐々に
風向・風速南 6m/s
視程10km以上
少しの雲 雲底高度 6100m
29日17時 JST ~ 29日18時 JST に徐々に
風向・風速不定 3m/s
視程10km以上
なし
30日8時 JST ~ 30日12時 JST に一時的に
風向・風速南東 6m/s 瞬間風速 9m/s
TAF RJTY 282100Z 2821/3003 VRB06KT 9999 FEW200 QNH2973INS
BECMG 2900/2901 19012KT 9999 FEW200 QNH2970INS
BECMG 2908/2909 VRB06KT 9999 SKC QNH2968INS
TEMPO 2923/3003 14012G18KT TX30/2905Z TN16/2920Z
日本の空港のMETAR・TAFへのリンク

RJTT 東京国際空港
RJAA 新東京国際空港
RJBB 関西国際空港
RJOO 大阪空港
RJGG 中部国際空港
RJCC 新千歳空港
RJFF 福岡空港
ROAH 那覇空港


RJEC 旭川空港
RJCH 函館空港
RJCK 釧路空港
RJCM 女満別空港
RJCB 帯広空港
RJSA 青森空港
RJSS 仙台空港
RJSK 秋田空港
RJSF 福島空港
RJAH 茨城空港
RJSN 新潟空港
RJNT 富山空港
RJNK 小松飛行場
RJNS 静岡空港
RJOH 美保飛行場
RJOC 出雲空港
RJOB 岡山空港
RJOA 広島空港
RJOI 岩国飛行場
RJOT 高松空港
RJOM 松山空港
RJOK 高知空港
RJFR 北九州空港
RJFT 熊本空港
RJFU 長崎空港
RJFS 佐賀空港
RJFO 大分空港
RJFM 宮崎空港
RJFK 鹿児島空港
ROIG 石垣島空港
RJTY 横田飛行場
ROTM 普天間飛行場
RODN 嘉手納飛行場